Latest Coastal Weather Observations for Cape Leeuwin

IDW60701

Issued at 2:42 am WST Saturday 30 May 2015 (issued every 10 minutes, with the page automatically refreshed every 10 minutes)

About coastal observations | Map of coastal stations | Coastal observations for WA | Marine services | Other Formats
Station Details ID: 009518 Name: CAPE LEEUWIN Lat: -34.37 Lon: 115.14 Height: 13.0 m
Data from the previous 72 hours. | See also: Recent months at Cape Leeuwin
Date/Time
WST
Temp

°C
Wind Pressure Rain
since 9am
mm
Weather Cloud Vis
km
Sea
Height
m
Swell
Dir
 
Speed
knots
Gust
knots
hPa Trend Height
m
Period
s
Dir
30/02:30am 11.4 NE 10 13 1027.0 - 0.0 - - - - - - -
30/02:00am 11.7 NE 10 13 1027.1 - 0.0 - - - - - - -
30/01:30am 11.9 NE 11 14 1027.0 - 0.0 - - - - - - -
30/01:00am 12.3 NE 11 15 1027.1 - 0.0 - - - - - - -
30/12:30am 12.4 NE 10 12 1027.2 - 0.0 - - - - - - -
30/12:00am 12.6 NE 9 11 1027.5 - 0.0 - - - - - - -
 
Date/Time
WST
Temp

°C
Wind Pressure Rain
since 9am
mm
Weather Cloud Vis
km
Sea
Height
m
Swell
Dir
 
Speed
knots
Gust
knots
hPa Trend Height
m
Period
s
Dir
29/11:30pm 12.9 NE 9 13 1027.5 - 0.0 - - - - - - -
29/11:00pm 13.1 NE 9 12 1027.5 - 0.0 - - - - - - -
29/10:30pm 13.3 NE 9 11 1027.5 - 0.0 - - - - - - -
29/10:00pm 13.4 NE 9 11 1027.7 - 0.0 - - - - - - -
29/09:30pm 13.4 NE 9 11 1027.8 - 0.0 - - - - - - -
29/09:00pm 14.2 NNE 7 9 1027.8 - 0.0 - - - - - - -
29/08:30pm 15.7 E 9 13 1027.5 - 0.0 - - - - - - -
29/08:00pm 15.4 ESE 7 9 1027.5 - 0.0 - - - - - - -
29/07:30pm 15.1 ESE 8 11 1027.4 - 0.0 - - - - - - -
29/07:00pm 14.9 SE 7 9 1027.1 - 0.0 - - - - - - -
29/06:30pm 14.9 ESE 6 8 1026.9 - 0.0 - - - - - - -
29/06:00pm 14.9 ESE 7 9 1026.5 - 0.0 - - - - - - -
29/05:30pm 14.7 ESE 6 8 1026.4 - 0.0 - - - - - - -
29/05:00pm 14.8 SE 5 7 1026.2 - 0.0 - - - - - - -
29/04:30pm 15.4 SE 6 8 1026.0 - 0.0 - - - - - - -
29/04:00pm 15.6 SE 6 8 1026.0 - 0.0 - - - - - - -
29/03:30pm 16.4 SSE 5 7 1026.1 - 0.0 - - - - - - -
29/03:00pm 16.5 S 6 8 1025.9 - 0.0 - - - - - - -
29/02:30pm 16.6 SSW 5 6 1025.9 - 0.0 - - - - - - -
29/02:00pm 16.4 SSW 4 7 1025.9 - 0.0 - - - - - - -
29/01:30pm 16.3 WSW 4 6 1026.0 - 0.0 - - - - - - -
29/01:00pm 16.4 WSW 5 6 1026.3 - 0.0 - - - - - - -
29/12:30pm 16.2 WNW 5 7 1026.6 - 0.0 - - - - - - -
29/12:00pm 16.0 NNE 7 10 1026.9 - 0.0 - - - - - - -
29/11:30am 15.3 NE 10 13 1027.1 - 0.0 - - - - - - -
29/11:00am 14.3 NNE 13 16 1027.4 - 0.0 - - - - - - -
29/10:30am 13.9 NNE 14 17 1027.7 - 0.0 - - - - - - -
29/10:00am 13.0 NNE 13 17 1027.7 - 0.0 - - - - - - -
29/09:30am 12.1 NNE 14 18 1027.9 - 0.0 - - - - - - -
29/09:00am 11.4 NNE 14 16 1027.8 - 2.4 - - - - - - -
29/08:30am 10.9 NE 13 16 1027.7 - 2.4 - - - - - - -
29/08:00am 10.4 NE 13 16 1027.6 - 2.4 - - - - - - -
29/07:30am 9.6 NE 12 14 1027.3 - 2.4 - - - - - - -
29/07:00am 9.6 NE 11 14 1027.0 - 2.4 - - - - - - -
29/06:30am 9.6 NE 11 13 1026.8 - 2.4 - - - - - - -
29/06:00am 9.7 NE 11 15 1026.7 - 2.4 - - - - - - -
29/05:30am 10.0 NE 9 12 1026.6 - 2.4 - - - - - - -
29/05:00am 10.2 NE 9 11 1026.7 - 2.4 - - - - - - -
29/04:30am 10.5 NE 10 12 1026.7 - 2.4 - - - - - - -
29/04:00am 10.5 NE 9 11 1026.7 - 2.4 - - - - - - -
29/03:30am 10.4 NE 9 12 1026.6 - 2.4 - - - - - - -
29/03:00am 10.5 NE 8 10 1026.8 - 2.4 - - - - - - -
29/02:30am 10.6 NE 8 10 1026.8 - 2.4 - - - - - - -
29/02:00am 10.5 NE 8 10 1026.9 - 2.4 - - - - - - -
29/01:30am 11.2 NE 9 11 1026.9 - 2.4 - - - - - - -
29/01:00am 11.0 NE 9 11 1027.0 - 2.4 - - - - - - -
29/12:30am 11.3 NE 6 8 1027.2 - 2.0 - - - - - - -
29/12:00am 11.7 NE 8 11 1027.1 - 1.8 - - - - - - -
 
Date/Time
WST
Temp

°C
Wind Pressure Rain
since 9am
mm
Weather Cloud Vis
km
Sea
Height
m
Swell
Dir
 
Speed
knots
Gust
knots
hPa Trend Height
m
Period
s
Dir
28/11:30pm 12.4 NE 9 14 1027.1 - 1.8 - - - - - - -
28/11:00pm 13.4 E 11 17 1027.2 - 1.8 - - - - - - -
28/10:30pm 14.1 E 14 17 1027.1 - 1.8 - - - - - - -
28/10:00pm 13.5 E 12 15 1027.3 - 1.8 - - - - - - -
28/09:30pm 12.9 ENE 11 21 1027.4 - 1.6 - - - - - - -
28/09:01pm 14.4 E 15 26 1026.9 - 1.0 - - - - - - -
28/09:00pm 14.3 E 15 20 1027.0 - 1.0 Recent precip. - - - - - -
28/08:30pm 14.0 E 14 19 1026.7 - 1.0 - - - - - - -
28/08:00pm 13.3 E 11 16 1026.6 - 0.8 - - - - - - -
28/07:30pm 14.8 E 15 19 1026.3 - 0.8 - - - - - - -
28/07:00pm 14.9 SE 14 17 1026.1 - 0.8 - - - - - - -
28/06:30pm 14.6 ESE 15 20 1025.8 - 0.8 - - - - - - -
28/06:00pm 14.3 SE 9 14 1025.6 - 0.8 - - - - - - -
28/05:30pm 13.7 ESE 14 18 1025.5 - 0.8 - - - - - - -
28/05:00pm 14.1 SE 13 18 1025.4 - 0.8 - - - - - - -
28/04:30pm 14.1 SE 14 17 1025.3 - 0.8 - - - - - - -
28/04:00pm 14.3 SE 14 18 1025.1 - 0.8 - - - - - - -
28/03:30pm 15.0 SE 10 15 1025.1 - 0.8 - - - - - - -
28/03:00pm 15.4 SSE 13 18 1025.1 - 0.8 - - - - - - -
28/02:30pm 15.1 SSE 15 19 1024.9 - 0.8 - - - - - - -
28/02:00pm 14.7 SSE 14 21 1024.9 - 0.8 - - - - - - -
28/01:30pm 14.2 SSE 14 20 1025.0 - 0.8 - - - - - - -
28/01:00pm 14.3 SSE 11 18 1025.1 - 0.8 - - - - - - -
28/12:30pm 14.3 SSE 11 15 1025.3 - 0.8 - - - - - - -
28/12:00pm 13.3 ENE 8 11 1025.7 - 0.8 Recent precip. - - - - - -
28/11:30am 13.1 NNE 3 5 1026.0 - 0.8 - - - - - - -
28/11:00am 12.2 NNE 7 10 1026.1 - 0.4 - - - - - - -
28/10:30am 12.8 NE 6 9 1026.0 - 0.0 - - - - - - -
28/10:00am 14.0 E 8 12 1026.0 - 0.0 - - - - - - -
28/09:30am 14.9 SSE 10 15 1025.7 - 0.0 - - - - - - -
28/09:00am 14.3 SSE 11 15 1025.5 - 1.6 - - - - - - -
28/08:30am 14.2 SSE 11 15 1025.3 - 1.6 - - - - - - -
28/08:00am 14.0 SSE 11 16 1025.0 - 1.6 - - - - - - -
28/07:30am 13.9 SE 13 17 1024.7 - 1.6 - - - - - - -
28/07:00am 13.2 SE 15 19 1024.6 - 1.6 - - - - - - -
28/06:30am 14.0 SSE 14 19 1024.2 - 1.6 - - - - - - -
28/06:00am 14.3 SSE 12 15 1023.9 - 1.6 - - - - - - -
28/05:30am 14.3 SSE 12 16 1023.7 - 1.6 - - - - - - -
28/05:00am 14.3 SSE 12 18 1023.4 - 1.6 - - - - - - -
28/04:30am 14.5 SSE 12 17 1023.3 - 1.6 - - - - - - -
28/04:00am 14.5 S 15 20 1023.3 - 1.6 - - - - - - -
28/03:30am 14.4 SSE 12 15 1023.4 - 1.6 - - - - - - -
28/03:00am 14.3 S 11 15 1023.3 - 1.6 - - - - - - -
28/02:30am 14.8 SSE 13 18 1023.4 - 1.6 - - - - - - -
28/02:00am 14.6 SSE 11 16 1023.3 - 1.6 - - - - - - -
28/01:30am 14.3 S 11 15 1023.2 - 1.6 - - - - - - -
28/01:00am 14.6 S 11 15 1023.1 - 1.6 - - - - - - -
28/12:30am 14.8 S 13 16 1023.2 - 1.6 - - - - - - -
28/12:00am 14.8 S 13 18 1023.1 - 1.6 - - - - - - -
 
Date/Time
WST
Temp

°C
Wind Pressure Rain
since 9am
mm
Weather Cloud Vis
km
Sea
Height
m
Swell
Dir
 
Speed
knots
Gust
knots
hPa Trend Height
m
Period
s
Dir
27/11:30pm 14.8 S 15 19 1023.1 - 1.6 - - - - - - -
27/11:00pm 14.9 S 14 19 1023.0 - 1.6 - - - - - - -
27/10:30pm 14.9 S 15 20 1023.0 - 1.6 - - - - - - -
27/10:00pm 15.0 S 15 19 1022.8 - 1.6 - - - - - - -
27/09:30pm 14.8 S 14 19 1022.8 - 1.6 - - - - - - -
27/09:15pm 15.0 SSE 15 25 1022.7 - 1.6 - - - - - - -
27/09:00pm 14.9 S 16 20 1022.6 - 1.6 - - - - - - -
27/08:30pm 14.9 S 13 19 1022.5 - 1.6 - - - - - - -
27/08:00pm 14.8 S 16 22 1022.4 - 1.6 - - - - - - -
27/07:30pm 14.8 S 16 22 1022.1 - 1.6 - - - - - - -
27/07:00pm 14.6 S 15 20 1021.8 - 1.6 - - - - - - -
27/06:30pm 13.9 S 9 13 1021.6 - 1.6 - - - - - - -
27/06:00pm 14.2 SSW 17 22 1021.6 - 0.4 Rain - - - - - -
27/05:30pm 14.8 SW 11 15 1021.1 - 0.2 - - - - - - -
27/05:00pm 14.3 SSW 15 20 1021.3 - 0.2 - - - - - - -
27/04:30pm 15.9 SSW 17 21 1021.2 - 0.2 - - - - - - -
27/04:00pm 16.6 SW 17 21 1021.1 - 0.2 - - - - - - -
27/03:30pm 17.3 W 14 19 1021.0 - 0.2 - - - - - - -
27/03:00pm 18.1 W 15 17 1021.0 - 0.2 - - - - - - -
27/02:30pm 18.3 WSW 16 19 1021.1 - 0.2 - - - - - - -
27/02:00pm 18.0 WSW 19 25 1021.3 - 0.2 - - - - - - -
27/01:30pm 17.9 WSW 18 22 1021.4 - 0.0 - - - - - - -
27/01:00pm 17.4 WSW 15 19 1021.6 - 0.0 - - - - - - -
27/12:30pm 17.3 W 14 17 1022.1 - 0.0 - - - - - - -
27/12:00pm 17.3 W 14 19 1022.7 - 0.0 - - - - - - -
27/11:30am 18.1 WSW 12 17 1022.9 - 0.0 - - - - - - -
27/11:00am 17.2 WSW 15 19 1023.1 - 0.0 - - - - - - -
27/10:30am 16.9 WSW 9 13 1023.3 - 0.0 - - - - - - -
27/10:00am 16.2 SW 10 14 1023.4 - 0.0 - - - - - - -
27/09:30am 17.1 WSW 11 15 1023.4 - 0.0 - - - - - - -
27/09:00am 16.5 SW 15 20 1023.4 - 0.2 - - - - - - -
27/08:30am 15.8 SW 13 17 1023.5 - 0.2 - - - - - - -
27/08:00am 15.7 SW 13 19 1023.3 - 0.2 - - - - - - -
27/07:30am 16.1 W 11 13 1023.0 - 0.2 - - - - - - -
27/07:00am 16.0 WSW 13 18 1022.9 - 0.2 - - - - - - -
27/06:30am 15.8 WSW 15 20 1022.9 - 0.2 - - - - - - -
27/06:00am 15.5 SW 13 19 1022.8 - 0.2 - - - - - - -
27/05:30am 15.7 WSW 14 17 1022.7 - 0.2 - - - - - - -
27/05:00am 15.3 WSW 10 14 1022.9 - 0.2 - - - - - - -
27/04:30am 15.4 WSW 13 17 1022.9 - 0.2 - - - - - - -
27/04:00am 15.1 WSW 13 17 1023.0 - 0.2 - - - - - - -
27/03:30am 15.1 SW 14 17 1023.0 - 0.2 - - - - - - -
27/03:00am 14.7 SW 11 15 1023.1 - 0.2 - - - - - - -

Other Formats:

Comma delimited format used in spreadsheet applications
http://www.bom.gov.au/fwo/IDW60701/IDW60701.94601.axf

JavaScript Object Notation format (JSON) in row-major order
http://www.bom.gov.au/fwo/IDW60701/IDW60701.94601.json